This is the latest recevied weather packets stored in our database for station/object M0OAB-1. If no packets are shown the sender has not sent any weather packets the latest 10 day(s).
| Time | Temp. | Humidity | Pressure | Rain* | Wind** | Luminosity | Snow |
|---|---|---|---|---|---|---|---|
| 1778065564 | 12.22° C | 63% | 998.8 hPa | 0 mm | - | - | - |
| 1778062924 | 12.22° C | 66% | 998.6 hPa | 0 mm | - | - | - |
| 1778062565 | 11.67° C | 66% | 998.4 hPa | 0 mm | - | - | - |
| 1778061725 | 12.22° C | 64% | 998.6 hPa | 0 mm | - | - | - |
| 1778060764 | 11.67° C | 64% | 998.6 hPa | 0 mm | - | - | - |
| 1778060524 | 11.67° C | 65% | 998.7 hPa | 0 mm | - | - | - |
| 1778059684 | 11.11° C | 67% | 998.6 hPa | 0 mm | - | - | - |
| 1778058965 | 10.56° C | 68% | 998.7 hPa | 0 mm | - | - | - |
| 1778058484 | 10.56° C | 67% | 998.8 hPa | 0 mm | - | - | - |
| 1778058364 | 11.11° C | 67% | 998.7 hPa | 0 mm | - | - | - |
| 1778057884 | 11.11° C | 69% | 998.7 hPa | 0 mm | - | - | - |
| 1778057404 | 11.11° C | 66% | 998.7 hPa | 0 mm | - | - | - |
| 1778056564 | 11.67° C | 70% | 998.5 hPa | 0 mm | - | - | - |
| 1778055244 | 10.56° C | 69% | 998.6 hPa | 0 mm | - | - | - |
| 1778054164 | 10.56° C | 70% | 998.6 hPa | 0 mm | - | - | - |
| 1778052844 | 10.56° C | 71% | 998.5 hPa | 0 mm | - | - | - |
| 1778052724 | 10.56° C | 71% | 998.8 hPa | 0 mm | - | - | - |
| 1778050684 | 8.33° C | 75% | 998.3 hPa | 0 mm | - | - | - |
| 1778050444 | 8.33° C | 75% | 998.4 hPa | 0 mm | - | - | - |
| 1778050084 | 8.33° C | 77% | 998.4 hPa | 0 mm | - | - | - |
| 1778049124 | 7.78° C | 78% | 998.3 hPa | 0 mm | - | - | - |
| 1778048404 | 7.78° C | 79% | 998.3 hPa | 0 mm | - | - | - |
| 1778046964 | 7.22° C | 84% | 998.1 hPa | 0 mm | - | - | - |
| 1778045284 | 7.22° C | 84% | 998.1 hPa | 0 mm | - | - | - |
| 1778044923 | 7.22° C | 84% | 998 hPa | 0 mm | - | - | - |
* Rain latest hour (hover to see other rain measurements)
** Current wind speed in m/s (hover to see current wind gust speed)